createdAt,value
2019-03-06T00:01:39.716Z,86.70
2019-03-06T00:04:09.567Z,84.60
2019-03-06T00:06:39.299Z,87.60
2019-03-06T00:09:10.908Z,83.00
2019-03-06T00:11:41.115Z,89.60
2019-03-06T00:14:13.009Z,89.00
2019-03-06T00:16:44.991Z,90.90
2019-03-06T00:19:15.768Z,88.20
2019-03-06T00:21:45.691Z,92.50
2019-03-06T00:24:16.734Z,91.80
2019-03-06T00:26:46.499Z,90.50
2019-03-06T00:29:16.483Z,90.50
2019-03-06T00:31:49.023Z,86.70
2019-03-06T00:34:18.839Z,80.20
2019-03-06T00:36:49.128Z,84.30
2019-03-06T00:39:18.673Z,88.40
2019-03-06T00:41:50.586Z,89.80
2019-03-06T00:44:20.411Z,86.40
2019-03-06T00:46:50.058Z,90.70
2019-03-06T00:49:20.828Z,88.20
2019-03-06T00:51:50.709Z,91.20
2019-03-06T00:54:20.512Z,92.90
2019-03-06T00:56:50.264Z,91.50
2019-03-06T00:59:19.989Z,89.00
2019-03-06T01:01:49.523Z,87.80
2019-03-06T01:04:21.476Z,92.60
2019-03-06T01:06:52.715Z,91.30
2019-03-06T01:09:22.632Z,93.60
2019-03-06T01:11:54.323Z,93.30
2019-03-06T01:14:23.959Z,92.40
2019-03-06T01:16:54.587Z,92.80
2019-03-06T01:19:24.419Z,92.30
2019-03-06T01:21:55.539Z,93.30
2019-03-06T01:24:25.501Z,93.90
2019-03-06T01:26:56.055Z,94.20
2019-03-06T01:29:25.935Z,94.00
2019-03-06T01:31:55.731Z,94.20
2019-03-06T01:34:50.255Z,93.00
2019-03-06T01:37:37.000Z,93.10
2019-03-06T01:40:24.870Z,94.80
2019-03-06T01:43:04.084Z,91.60
2019-03-06T01:45:33.783Z,95.20
2019-03-06T01:48:03.370Z,94.80
2019-03-06T01:50:34.951Z,96.20
2019-03-06T01:53:05.928Z,96.50
2019-03-06T01:55:35.766Z,94.30
2019-03-06T01:58:08.111Z,92.80
2019-03-06T02:00:40.338Z,93.30
2019-03-06T02:03:10.018Z,93.30
2019-03-06T02:05:40.751Z,92.60
2019-03-06T02:08:11.981Z,93.70
2019-03-06T02:10:42.179Z,98.70
2019-03-06T02:13:11.771Z,96.30
2019-03-06T02:15:41.563Z,94.20
2019-03-06T02:18:12.675Z,94.30
2019-03-06T02:20:42.963Z,95.70
2019-03-06T02:23:13.111Z,97.50
2019-03-06T02:25:44.271Z,92.00
2019-03-06T02:28:13.959Z,94.80
2019-03-06T02:30:43.567Z,94.30
2019-03-06T02:33:13.178Z,94.30
2019-03-06T02:35:43.402Z,94.30
2019-03-06T02:38:13.255Z,99.10
2019-03-06T02:40:42.979Z,96.40
2019-03-06T02:43:12.760Z,95.90
2019-03-06T02:45:42.347Z,97.30
2019-03-06T02:48:12.676Z,97.20
2019-03-06T02:50:44.084Z,97.60
2019-03-06T02:53:13.703Z,96.00
2019-03-06T02:55:43.335Z,97.50
2019-03-06T02:58:19.490Z,99.90
2019-03-06T03:01:14.099Z,98.70
2019-03-06T03:04:03.878Z,99.90
2019-03-06T03:06:40.577Z,99.40
2019-03-06T03:09:20.524Z,97.80
2019-03-06T03:11:51.700Z,98.40
2019-03-06T03:14:22.387Z,96.80
2019-03-06T03:16:52.702Z,96.10
2019-03-06T03:19:22.379Z,95.00
2019-03-06T03:21:53.812Z,96.30
2019-03-06T03:24:26.929Z,95.10
2019-03-06T03:26:56.532Z,96.20
2019-03-06T03:29:26.107Z,94.80
2019-03-06T03:31:56.261Z,94.40
2019-03-06T03:34:25.940Z,94.60
2019-03-06T03:36:55.576Z,97.90
2019-03-06T03:39:28.326Z,94.60
2019-03-06T03:41:58.157Z,99.30
2019-03-06T03:44:27.812Z,94.90
2019-03-06T03:46:57.339Z,94.40
2019-03-06T03:49:27.940Z,94.40
2019-03-06T03:51:57.567Z,95.40
2019-03-06T03:54:27.767Z,93.60
2019-03-06T03:56:57.461Z,94.00
2019-03-06T03:59:28.640Z,95.10
2019-03-06T04:04:28.314Z,95.40
2019-03-06T04:06:58.000Z,94.00
2019-03-06T04:09:27.887Z,96.10
2019-03-06T04:11:58.308Z,95.50
2019-03-06T04:14:28.049Z,95.30
2019-03-06T04:16:59.644Z,97.40
2019-03-06T04:19:29.235Z,95.90
2019-03-06T04:21:58.851Z,96.10
2019-03-06T04:24:28.668Z,92.30
2019-03-06T04:26:58.878Z,95.10
2019-03-06T04:29:28.980Z,91.90
2019-03-06T04:31:59.216Z,94.60
2019-03-06T04:36:57.815Z,96.40
2019-03-06T04:39:27.579Z,93.20
2019-03-06T04:42:00.038Z,92.10
2019-03-06T04:44:29.731Z,92.70
2019-03-06T04:46:59.637Z,92.20
2019-03-06T04:49:53.408Z,91.70
2019-03-06T04:52:23.262Z,93.30
2019-03-06T04:54:52.876Z,96.30
2019-03-06T04:57:23.882Z,97.70
2019-03-06T04:59:53.604Z,97.40
2019-03-06T05:02:23.599Z,94.60
2019-03-06T05:04:54.732Z,95.40
2019-03-06T05:07:26.264Z,96.10
2019-03-06T05:09:55.983Z,98.00
2019-03-06T05:12:25.788Z,96.70
2019-03-06T05:14:57.143Z,95.10
2019-03-06T05:17:43.214Z,97.00
2019-03-06T05:20:13.095Z,95.10
2019-03-06T05:22:44.452Z,97.00
2019-03-06T05:25:14.018Z,94.60
2019-03-06T05:27:45.434Z,97.10
2019-03-06T05:30:17.871Z,95.30
2019-03-06T05:32:47.932Z,95.50
2019-03-06T05:35:30.731Z,95.30
2019-03-06T05:38:12.442Z,95.60
2019-03-06T05:40:42.267Z,97.90
2019-03-06T05:43:11.928Z,96.50
2019-03-06T05:45:41.591Z,97.40
2019-03-06T05:48:11.936Z,97.50
2019-03-06T05:50:41.596Z,96.70
2019-03-06T05:53:13.155Z,98.00
2019-03-06T05:55:42.996Z,98.40
2019-03-06T05:58:13.986Z,99.90
2019-03-06T06:00:44.088Z,99.80
2019-03-06T06:03:15.651Z,99.90
2019-03-06T06:05:46.975Z,97.20
2019-03-06T06:08:16.706Z,97.00
2019-03-06T06:10:47.417Z,97.60
2019-03-06T06:13:16.962Z,96.40
2019-03-06T06:15:46.719Z,94.80
2019-03-06T06:18:16.265Z,96.80
2019-03-06T06:20:50.314Z,99.00
2019-03-06T06:23:45.840Z,98.30
2019-03-06T06:26:17.371Z,96.30
2019-03-06T06:28:47.514Z,97.30
2019-03-06T06:31:18.315Z,95.30
2019-03-06T06:33:49.876Z,97.00
2019-03-06T06:36:19.580Z,95.10
2019-03-06T06:38:49.339Z,97.70
2019-03-06T06:41:21.900Z,97.50
2019-03-06T06:43:52.067Z,98.40
2019-03-06T06:46:22.208Z,96.40
2019-03-06T06:48:51.981Z,95.90
2019-03-06T06:52:17.932Z,99.10
2019-03-06T06:55:13.387Z,96.70
2019-03-06T06:58:40.252Z,96.60
2019-03-06T07:01:52.303Z,96.60
2019-03-06T07:04:43.870Z,95.60
2019-03-06T07:07:31.551Z,95.90
2019-03-06T07:10:23.051Z,97.20
2019-03-06T07:13:22.876Z,98.20
2019-03-06T07:16:14.603Z,98.50
2019-03-06T07:19:03.807Z,97.20
2019-03-06T07:21:47.716Z,97.10
2019-03-06T07:24:34.894Z,95.90
2019-03-06T07:27:22.667Z,97.90
2019-03-06T07:30:13.659Z,96.10
2019-03-06T07:32:55.111Z,99.60
2019-03-06T07:36:21.584Z,94.40
2019-03-06T07:38:59.050Z,95.60
2019-03-06T07:41:43.895Z,94.40
2019-03-06T07:44:35.771Z,99.40
2019-03-06T07:47:24.384Z,96.20
2019-03-06T07:50:01.602Z,94.10
2019-03-06T07:52:50.235Z,94.10
2019-03-06T07:55:35.827Z,95.70
2019-03-06T07:58:54.955Z,95.40
2019-03-06T08:01:28.342Z,95.70
2019-03-06T08:04:09.147Z,95.10
2019-03-06T08:06:40.256Z,95.60
2019-03-06T08:09:13.389Z,91.10
2019-03-06T08:12:00.386Z,93.30
2019-03-06T08:14:54.280Z,96.90
2019-03-06T08:17:28.804Z,92.50
2019-03-06T08:20:33.170Z,93.10
2019-03-06T08:23:30.931Z,93.40
2019-03-06T08:26:00.607Z,96.00
2019-03-06T08:28:30.322Z,94.40
2019-03-06T08:31:23.019Z,94.60
2019-03-06T08:33:52.683Z,94.00
2019-03-06T08:36:22.599Z,90.90
2019-03-06T08:38:52.375Z,91.20
2019-03-06T08:41:22.211Z,92.50
2019-03-06T08:43:51.964Z,92.00
2019-03-06T08:46:40.724Z,92.80
2019-03-06T08:49:41.586Z,94.30
2019-03-06T08:52:34.123Z,92.40
2019-03-06T08:55:28.221Z,92.10
2019-03-06T08:58:19.015Z,90.10
2019-03-06T09:01:12.883Z,90.80
2019-03-06T09:04:07.535Z,94.30
2019-03-06T09:06:50.291Z,91.60
2019-03-06T09:09:38.679Z,94.50
2019-03-06T09:12:27.358Z,90.40
2019-03-06T09:15:18.804Z,95.50
2019-03-06T09:18:09.058Z,87.00
2019-03-06T09:20:59.193Z,93.60
2019-03-06T09:24:05.963Z,89.70
2019-03-06T09:26:53.091Z,91.50
2019-03-06T09:29:37.423Z,89.60
2019-03-06T09:32:28.869Z,90.10
2019-03-06T09:35:18.077Z,91.30
2019-03-06T09:38:12.667Z,90.10
2019-03-06T09:41:03.918Z,89.30
2019-03-06T09:43:52.252Z,90.50
2019-03-06T09:46:39.781Z,87.60
2019-03-06T09:49:30.673Z,91.40
2019-03-06T09:52:34.318Z,89.50
2019-03-06T09:55:26.462Z,89.40
2019-03-06T10:01:09.535Z,85.00
2019-03-06T10:03:56.656Z,89.40
2019-03-06T10:06:58.023Z,86.20
2019-03-06T10:09:38.224Z,85.10
2019-03-06T10:12:20.284Z,84.10
2019-03-06T10:14:56.067Z,91.90
2019-03-06T10:17:33.946Z,88.40
2019-03-06T10:20:07.039Z,83.90
2019-03-06T10:22:36.839Z,87.20
2019-03-06T10:25:07.405Z,86.20
2019-03-06T10:27:38.135Z,85.50
2019-03-06T10:30:13.096Z,84.60
2019-03-06T10:32:44.059Z,85.60
2019-03-06T10:35:15.507Z,85.20
2019-03-06T10:37:46.165Z,83.60
2019-03-06T10:40:17.251Z,84.80
2019-03-06T10:42:47.135Z,84.00
2019-03-06T10:45:17.543Z,81.70
2019-03-06T10:47:47.779Z,88.00
2019-03-06T10:50:26.283Z,80.70
2019-03-06T10:52:50.359Z,82.80
2019-03-06T10:55:20.712Z,81.20
2019-03-06T10:57:50.435Z,80.20
2019-03-06T11:00:24.887Z,87.00
2019-03-06T11:02:57.004Z,81.50
2019-03-06T11:05:28.614Z,82.80
2019-03-06T11:08:00.135Z,86.10
2019-03-06T11:10:32.526Z,79.40
2019-03-06T11:13:04.435Z,80.50
2019-03-06T11:15:34.100Z,80.60
2019-03-06T11:18:04.012Z,91.20
2019-03-06T11:20:33.983Z,81.90
2019-03-06T11:23:05.987Z,78.50
2019-03-06T11:25:37.415Z,79.00
2019-03-06T11:28:09.159Z,84.80
2019-03-06T11:30:43.298Z,82.00
2019-03-06T11:33:13.702Z,79.60
2019-03-06T11:35:43.731Z,83.10
2019-03-06T11:38:13.594Z,81.50
2019-03-06T11:40:43.304Z,80.90
2019-03-06T11:43:12.960Z,84.40
2019-03-06T11:45:44.565Z,81.20
2019-03-06T11:48:14.247Z,82.40
2019-03-06T11:50:44.434Z,80.10
2019-03-06T11:53:15.172Z,83.80
2019-03-06T11:55:44.776Z,81.30
2019-03-06T11:58:16.638Z,80.20
2019-03-06T12:00:47.717Z,79.60
2019-03-06T12:03:19.667Z,86.20
2019-03-06T12:05:51.231Z,85.10
2019-03-06T12:08:21.491Z,78.20
2019-03-06T12:10:52.566Z,81.70
2019-03-06T12:13:22.713Z,77.20
2019-03-06T12:15:53.999Z,76.50
2019-03-06T12:18:24.842Z,83.20
2019-03-06T12:20:54.984Z,81.70
2019-03-06T12:23:26.644Z,83.70
2019-03-06T12:25:56.378Z,82.40
2019-03-06T12:28:26.067Z,77.80
2019-03-06T12:30:56.233Z,82.50
2019-03-06T12:33:27.864Z,79.40
2019-03-06T12:35:57.656Z,78.40
2019-03-06T12:38:27.795Z,78.50
2019-03-06T12:40:57.339Z,83.50
2019-03-06T12:43:26.920Z,77.00
2019-03-06T12:46:23.624Z,82.60
2019-03-06T12:49:13.261Z,80.50
2019-03-06T12:51:42.801Z,87.70
2019-03-06T12:54:12.536Z,80.50
2019-03-06T12:56:42.259Z,83.70
2019-03-06T12:59:14.315Z,89.40
2019-03-06T13:01:44.375Z,81.20
2019-03-06T13:04:15.803Z,80.10
2019-03-06T13:06:45.471Z,80.10
2019-03-06T13:09:19.179Z,85.00
2019-03-06T13:11:49.059Z,88.30
2019-03-06T13:14:18.770Z,83.40
2019-03-06T13:16:51.130Z,91.30
2019-03-06T13:19:20.907Z,84.20
2019-03-06T13:21:50.809Z,87.60
2019-03-06T13:24:20.775Z,90.70
2019-03-06T13:29:19.638Z,88.00
2019-03-06T13:31:52.410Z,88.30
2019-03-06T13:34:31.685Z,84.40
2019-03-06T13:37:01.944Z,81.90
2019-03-06T13:39:32.752Z,80.70
2019-03-06T13:42:02.567Z,82.70
2019-03-06T13:44:33.647Z,84.30
2019-03-06T13:47:03.198Z,89.20
2019-03-06T13:49:32.855Z,76.90
2019-03-06T13:52:02.453Z,81.80
2019-03-06T13:54:33.266Z,81.60
2019-03-06T13:57:02.991Z,82.00
2019-03-06T13:59:32.835Z,82.60
2019-03-06T14:04:32.591Z,84.00
2019-03-06T14:07:02.884Z,85.60
2019-03-06T14:09:34.152Z,88.30
2019-03-06T14:12:03.794Z,85.90
2019-03-06T14:14:33.654Z,85.90
2019-03-06T14:17:03.386Z,89.70
2019-03-06T14:19:34.163Z,92.80
2019-03-06T14:22:04.402Z,90.30
2019-03-06T14:24:35.384Z,90.10
2019-03-06T14:27:06.660Z,91.60
2019-03-06T14:29:39.230Z,90.50
2019-03-06T14:32:14.773Z,89.20
2019-03-06T14:34:42.287Z,92.60
2019-03-06T14:37:13.827Z,91.80
2019-03-06T14:39:43.399Z,90.30
2019-03-06T14:42:13.043Z,91.20
2019-03-06T14:44:44.032Z,94.80
2019-03-06T14:47:17.075Z,96.80
2019-03-06T14:49:48.654Z,93.60
2019-03-06T14:52:19.387Z,95.60
2019-03-06T14:54:49.684Z,93.20
2019-03-06T14:57:19.703Z,93.80
2019-03-06T14:59:49.368Z,95.70
2019-03-06T15:02:19.082Z,92.80
2019-03-06T15:04:49.036Z,93.70
2019-03-06T15:07:18.739Z,95.20
2019-03-06T15:09:48.483Z,93.90
2019-03-06T15:12:19.939Z,92.80
2019-03-06T15:14:50.705Z,92.30
2019-03-06T15:17:21.338Z,92.40
2019-03-06T15:19:50.924Z,97.10
2019-03-06T15:22:21.434Z,97.30
2019-03-06T15:24:52.695Z,94.40
2019-03-06T15:27:22.548Z,95.70
2019-03-06T15:29:53.191Z,91.60
2019-03-06T15:32:22.812Z,91.70
2019-03-06T15:34:53.442Z,93.10
2019-03-06T15:37:24.142Z,91.50
2019-03-06T15:39:54.431Z,91.60
2019-03-06T15:42:24.255Z,93.40
2019-03-06T15:44:53.904Z,90.40
2019-03-06T15:47:33.253Z,92.10
2019-03-06T15:49:57.135Z,90.30
2019-03-06T15:52:27.611Z,92.70
2019-03-06T15:54:59.443Z,91.70
2019-03-06T15:57:29.211Z,92.00
2019-03-06T15:59:58.791Z,92.50
2019-03-06T16:02:29.253Z,94.30
2019-03-06T16:04:58.927Z,94.80
2019-03-06T16:07:28.647Z,90.20
2019-03-06T16:09:58.499Z,90.50
2019-03-06T16:12:28.227Z,94.70
2019-03-06T16:14:58.000Z,93.30
2019-03-06T16:17:28.095Z,91.90
2019-03-06T16:19:59.139Z,93.90
2019-03-06T16:22:28.868Z,92.60
2019-03-06T16:25:00.405Z,91.60
2019-03-06T16:27:31.874Z,92.10
2019-03-06T16:30:03.356Z,94.20
2019-03-06T16:32:33.136Z,94.30
2019-03-06T16:35:03.303Z,93.10
2019-03-06T16:37:33.422Z,90.40
2019-03-06T16:40:03.242Z,95.80
2019-03-06T16:42:34.422Z,91.40
2019-03-06T16:45:04.351Z,95.00
2019-03-06T16:47:35.232Z,93.10
2019-03-06T16:50:13.544Z,91.50
2019-03-06T16:52:37.143Z,90.00
2019-03-06T16:55:08.727Z,92.20
2019-03-06T16:57:38.951Z,91.50
2019-03-06T17:00:25.762Z,94.40
2019-03-06T17:02:57.313Z,94.60
2019-03-06T17:05:27.452Z,93.70
2019-03-06T17:07:59.575Z,92.30
2019-03-06T17:10:29.715Z,94.80
2019-03-06T17:12:59.923Z,91.20
2019-03-06T17:15:31.593Z,91.80
2019-03-06T17:18:02.008Z,94.80
2019-03-06T17:20:33.834Z,95.70
2019-03-06T17:23:03.879Z,96.50
2019-03-06T17:25:34.686Z,96.40
2019-03-06T17:28:04.630Z,99.00
2019-03-06T17:30:34.750Z,96.10
2019-03-06T17:33:07.155Z,95.80
2019-03-06T17:35:39.459Z,94.90
2019-03-06T17:38:10.414Z,94.10
2019-03-06T17:40:42.572Z,95.50
2019-03-06T17:43:12.710Z,97.00
2019-03-06T17:45:44.136Z,96.30
2019-03-06T17:48:14.028Z,94.90
2019-03-06T17:50:43.828Z,96.20
2019-03-06T17:53:15.217Z,93.50
2019-03-06T17:55:45.062Z,96.00
2019-03-06T17:58:16.079Z,95.50
2019-03-06T18:00:53.193Z,94.50
2019-03-06T18:03:39.900Z,97.30
2019-03-06T18:08:42.677Z,93.30
2019-03-06T18:11:12.191Z,94.40
2019-03-06T18:13:41.899Z,94.10
2019-03-06T18:16:12.626Z,94.60
2019-03-06T18:18:43.431Z,95.00
2019-03-06T18:21:14.831Z,92.60
2019-03-06T18:23:45.706Z,97.90
2019-03-06T18:26:16.583Z,95.80
2019-03-06T18:28:46.747Z,98.40
2019-03-06T18:31:16.409Z,96.90
2019-03-06T18:33:45.931Z,96.30
2019-03-06T18:36:17.043Z,99.60
2019-03-06T18:38:48.630Z,96.20
2019-03-06T18:41:18.214Z,96.80
2019-03-06T18:43:49.736Z,97.40
2019-03-06T18:46:19.530Z,95.50
2019-03-06T18:48:49.475Z,97.00
2019-03-06T18:51:19.412Z,97.80
2019-03-06T18:53:49.208Z,99.10
2019-03-06T18:56:18.910Z,97.20
2019-03-06T18:58:48.988Z,96.10
2019-03-06T19:01:18.523Z,96.90
2019-03-06T19:03:48.580Z,97.60
2019-03-06T19:06:18.163Z,97.50
2019-03-06T19:08:48.007Z,97.90
2019-03-06T19:11:17.788Z,98.10
2019-03-06T19:13:48.861Z,97.70
2019-03-06T19:16:18.863Z,97.60
2019-03-06T19:18:50.036Z,97.40
2019-03-06T19:21:19.686Z,97.10
2019-03-06T19:23:49.349Z,98.70
2019-03-06T19:26:19.991Z,97.20
2019-03-06T19:28:49.899Z,98.40
2019-03-06T19:31:20.171Z,97.10
2019-03-06T19:33:49.880Z,96.20
2019-03-06T19:36:20.751Z,95.50
2019-03-06T19:38:51.887Z,96.10
2019-03-06T19:41:22.457Z,96.20
2019-03-06T19:43:52.411Z,96.70
2019-03-06T19:46:22.063Z,96.30
2019-03-06T19:48:51.976Z,97.50
2019-03-06T19:51:21.648Z,96.70
2019-03-06T19:53:52.549Z,96.50
2019-03-06T19:56:22.275Z,97.00
2019-03-06T19:58:52.696Z,95.40
2019-03-06T20:01:22.488Z,94.80
2019-03-06T20:03:52.259Z,96.90
2019-03-06T20:06:26.966Z,96.50
2019-03-06T20:08:53.223Z,97.30
2019-03-06T20:11:22.888Z,98.40
2019-03-06T20:13:52.482Z,98.20
2019-03-06T20:16:23.612Z,96.10
2019-03-06T20:18:53.492Z,98.30
2019-03-06T20:21:23.203Z,97.90
2019-03-06T20:23:56.523Z,97.00
2019-03-06T20:26:26.398Z,99.00
2019-03-06T20:28:56.135Z,97.20
2019-03-06T20:31:25.887Z,98.90
2019-03-06T20:33:58.918Z,99.10
2019-03-06T20:36:28.662Z,98.90
2019-03-06T20:38:58.374Z,97.00
2019-03-06T20:41:28.844Z,99.50
2019-03-06T20:43:59.043Z,96.50
2019-03-06T20:46:28.627Z,98.50
2019-03-06T20:49:00.075Z,98.70
2019-03-06T20:51:29.731Z,99.90
2019-03-06T20:54:00.708Z,99.50
2019-03-06T20:56:31.487Z,99.30
2019-03-06T20:59:01.198Z,98.90
2019-03-06T21:01:33.349Z,96.50
2019-03-06T21:04:03.525Z,97.90
2019-03-06T21:06:36.325Z,98.30
2019-03-06T21:09:06.655Z,97.20
2019-03-06T21:11:36.429Z,96.30
2019-03-06T21:14:07.415Z,98.40
2019-03-06T21:16:37.093Z,99.90
2019-03-06T21:19:06.896Z,98.40
2019-03-06T21:21:37.190Z,99.90
2019-03-06T21:24:07.879Z,99.10
2019-03-06T21:26:37.503Z,97.20
2019-03-06T21:29:08.675Z,96.30
2019-03-06T21:31:40.716Z,95.80
2019-03-06T21:34:10.598Z,95.50
2019-03-06T21:39:24.501Z,96.80
2019-03-06T21:41:54.779Z,97.20
2019-03-06T21:44:26.260Z,97.70
2019-03-06T21:46:58.097Z,95.60
2019-03-06T21:49:29.223Z,97.20
2019-03-06T21:51:59.617Z,99.10
2019-03-06T21:54:29.297Z,98.20
2019-03-06T21:56:59.238Z,99.20
2019-03-06T21:59:29.069Z,99.90
2019-03-06T22:01:59.803Z,99.90
2019-03-06T22:04:29.983Z,97.80
2019-03-06T22:07:01.679Z,99.30
2019-03-06T22:09:31.352Z,98.60
2019-03-06T22:12:03.875Z,99.90
2019-03-06T22:14:34.685Z,98.30
2019-03-06T22:17:04.686Z,99.00
2019-03-06T22:19:35.721Z,98.60
2019-03-06T22:22:07.442Z,98.90
2019-03-06T22:24:36.983Z,98.70
2019-03-06T22:27:06.646Z,98.20
2019-03-06T22:29:36.196Z,97.80
2019-03-06T22:32:05.921Z,98.20
2019-03-06T22:34:35.699Z,98.90
2019-03-06T22:37:06.943Z,99.80
2019-03-06T22:39:36.608Z,99.90
2019-03-06T22:42:07.351Z,97.50
2019-03-06T22:44:38.341Z,97.50
2019-03-06T22:47:08.263Z,99.50
2019-03-06T22:49:37.831Z,99.90
2019-03-06T22:52:07.539Z,98.30
2019-03-06T22:54:37.159Z,98.40
2019-03-06T22:57:07.103Z,99.90
2019-03-06T22:59:36.953Z,99.90
2019-03-06T23:02:06.743Z,99.20
2019-03-06T23:04:36.416Z,96.40
2019-03-06T23:07:06.567Z,99.90
2019-03-06T23:09:36.243Z,97.90
2019-03-06T23:12:05.911Z,97.50
2019-03-06T23:14:35.775Z,97.30
2019-03-06T23:17:05.418Z,97.30
2019-03-06T23:19:36.040Z,97.40
2019-03-06T23:22:05.749Z,96.80
2019-03-06T23:24:35.549Z,95.10
2019-03-06T23:27:05.227Z,94.10
2019-03-06T23:29:34.870Z,94.50
2019-03-06T23:32:04.402Z,95.00
2019-03-06T23:34:34.235Z,92.20
2019-03-06T23:37:04.037Z,94.60
2019-03-06T23:39:35.599Z,94.80
2019-03-06T23:42:06.329Z,96.20
2019-03-06T23:44:36.188Z,94.00
2019-03-06T23:47:05.865Z,98.50
2019-03-06T23:49:37.194Z,95.50
2019-03-06T23:52:13.207Z,96.30
2019-03-06T23:54:42.841Z,99.00
2019-03-06T23:57:12.648Z,94.60
2019-03-06T23:59:42.199Z,97.70
